Time;durP1;ratioP1;P1;durP2;ratioP2;P2;SDS_P1;SDS_P2;PMS_P1;PMS_P2;Temp;Humidity;BMP_temperature;BMP_pressure;BME280_temperature;BME280_humidity;BME280_pressure;Samples;Min_cycle;Max_cycle;Signal;HPM_P1;HPM_P2
2022/04/30 00:00:08;;;;;;;0.70;0.70;;;;;;;;;;4943048;29;20050;-81
2022/04/30 00:02:35;;;;;;;0.75;0.75;;;;;;;;;;4944500;28;20054;-81
2022/04/30 00:05:01;;;;;;;0.95;0.77;;;;;;;;;;4930104;29;20035;-81
2022/04/30 00:07:27;;;;;;;0.63;0.60;;;;;;;;;;4943649;28;20109;-81
2022/04/30 00:09:53;;;;;;;0.20;0.20;;;;;;;;;;4946593;28;20094;-80
2022/04/30 00:12:19;;;;;;;0.20;0.20;;;;;;;;;;4947295;28;20035;-81
2022/04/30 00:14:46;;;;;;;1.48;0.70;;;;;;;;;;4943289;28;20031;-81
2022/04/30 00:17:12;;;;;;;0.03;0.03;;;;;;;;;;4950017;28;20519;-81
2022/04/30 00:19:38;;;;;;;0.43;0.20;;;;;;;;;;4948700;28;20492;-80
2022/04/30 00:22:04;;;;;;;4.30;1.50;;;;;;;;;;4946320;28;20031;-80
2022/04/30 00:24:31;;;;;;;0.87;0.73;;;;;;;;;;4954812;28;20702;-83
2022/04/30 00:26:59;;;;;;;0.47;0.47;;;;;;;;;;4943988;28;20379;-80
2022/04/30 00:29:26;;;;;;;1.42;1.33;;;;;;;;;;4946903;28;20058;-77
2022/04/30 00:31:52;;;;;;;0.45;0.45;;;;;;;;;;4947786;28;20031;-77
2022/04/30 00:34:19;;;;;;;0.15;0.15;;;;;;;;;;4946964;28;20035;-77
2022/04/30 00:36:45;;;;;;;0.10;0.10;;;;;;;;;;4946679;28;20031;-78
2022/04/30 00:39:11;;;;;;;0.63;0.63;;;;;;;;;;4946674;28;20041;-78
2022/04/30 00:41:41;;;;;;;0.20;0.20;;;;;;;;;;4942330;28;20447;-78
2022/04/30 00:44:07;;;;;;;1.80;1.10;;;;;;;;;;4947674;28;20058;-78
2022/04/30 00:46:33;;;;;;;0.20;0.20;;;;;;;;;;4947106;28;20055;-78
2022/04/30 00:49:01;;;;;;;0.20;0.20;;;;;;;;;;4947626;28;20024;-79
2022/04/30 00:51:28;;;;;;;0.45;0.30;;;;;;;;;;4946719;28;20553;-80
2022/04/30 00:53:55;;;;;;;0.98;0.88;;;;;;;;;;4944151;29;20034;-79
2022/04/30 00:56:29;;;;;;;0.30;0.30;;;;;;;;;;4947618;28;20491;-79
2022/04/30 00:58:59;;;;;;;0.52;0.43;;;;;;;;;;4945825;28;20399;-79
2022/04/30 01:01:25;;;;;;;0.10;0.10;;;;;;;;;;4951313;28;20058;-79
2022/04/30 01:03:51;;;;;;;0.53;0.53;;;;;;;;;;4947761;28;20027;-80
2022/04/30 01:06:21;;;;;;;0.63;0.52;;;;;;;;;;4945831;28;20313;-79
2022/04/30 01:08:48;;;;;;;0.15;0.15;;;;;;;;;;4944236;29;20059;-80
2022/04/30 01:11:15;;;;;;;0.10;0.10;;;;;;;;;;4942553;28;20121;-79
2022/04/30 01:13:41;;;;;;;0.10;0.10;;;;;;;;;;4948758;28;20515;-79
2022/04/30 01:16:08;;;;;;;0.53;0.20;;;;;;;;;;4946776;28;20035;-79
2022/04/30 01:18:35;;;;;;;0.52;0.52;;;;;;;;;;4947182;28;20505;-79
2022/04/30 01:21:03;;;;;;;0.43;0.40;;;;;;;;;;4946087;28;20039;-79
2022/04/30 01:23:30;;;;;;;0.35;0.35;;;;;;;;;;4945814;28;20024;-79
2022/04/30 01:25:56;;;;;;;0.10;0.10;;;;;;;;;;4946945;28;20071;-80
2022/04/30 01:28:23;;;;;;;1.15;0.60;;;;;;;;;;4946054;28;20514;-79
2022/04/30 01:30:49;;;;;;;1.02;0.55;;;;;;;;;;4944936;28;20035;-79
2022/04/30 01:38:31;;;;;;;0.90;0.70;;;;;;;;;;4946496;28;20415;-79
2022/04/30 01:40:58;;;;;;;2.63;0.63;;;;;;;;;;4946171;28;20069;-80
2022/04/30 01:43:24;;;;;;;1.33;1.23;;;;;;;;;;4943697;29;20093;-79
2022/04/30 01:45:50;;;;;;;;;;;;;;;;;;4948361;28;20743;-80
2022/04/30 01:48:17;;;;;;;0.57;0.50;;;;;;;;;;4946820;28;19940;-81
2022/04/30 01:50:43;;;;;;;0.47;0.30;;;;;;;;;;4950171;28;20043;-79
2022/04/30 01:53:09;;;;;;;0.10;0.10;;;;;;;;;;4948614;28;20123;-80
2022/04/30 01:55:35;;;;;;;0.80;0.75;;;;;;;;;;4949409;28;20482;-81
2022/04/30 01:58:01;;;;;;;1.02;0.60;;;;;;;;;;4946356;28;20094;-79
2022/04/30 02:00:27;;;;;;;6.00;1.90;;;;;;;;;;4945333;29;20039;-81
2022/04/30 02:02:54;;;;;;;0.20;0.20;;;;;;;;;;4947381;28;20443;-81
2022/04/30 02:05:22;;;;;;;0.40;0.40;;;;;;;;;;4945197;29;20134;-80
2022/04/30 02:08:00;;;;;;;0.57;0.57;;;;;;;;;;4943447;28;20035;-80
2022/04/30 02:10:27;;;;;;;0.10;0.10;;;;;;;;;;4947323;28;20051;-80
2022/04/30 02:12:53;;;;;;;0.47;0.47;;;;;;;;;;4946525;28;20035;-80
2022/04/30 02:15:20;;;;;;;0.25;0.25;;;;;;;;;;4946188;28;20647;-81
2022/04/30 02:17:49;;;;;;;0.17;0.17;;;;;;;;;;4946106;28;20042;-80
2022/04/30 02:20:19;;;;;;;0.47;0.47;;;;;;;;;;4946168;28;20042;-80
2022/04/30 02:22:45;;;;;;;0.65;0.60;;;;;;;;;;4942732;29;20522;-80
2022/04/30 02:25:12;;;;;;;0.47;0.47;;;;;;;;;;4946793;28;20035;-81
2022/04/30 02:27:43;;;;;;;1.27;1.05;;;;;;;;;;4945515;28;20066;-80
2022/04/30 02:30:14;;;;;;;0.22;0.22;;;;;;;;;;4945781;28;20039;-80
2022/04/30 02:32:46;;;;;;;9.95;1.95;;;;;;;;;;4946046;28;20651;-79
2022/04/30 02:35:14;;;;;;;0.15;0.15;;;;;;;;;;4942647;28;20035;-81
2022/04/30 02:37:44;;;;;;;1.08;1.02;;;;;;;;;;4944858;28;20752;-81
2022/04/30 02:40:11;;;;;;;1.08;0.70;;;;;;;;;;4946352;28;20031;-80
2022/04/30 02:42:38;;;;;;;0.45;0.45;;;;;;;;;;4944237;28;20031;-81
2022/04/30 02:45:04;;;;;;;0.43;0.43;;;;;;;;;;4946059;28;20027;-80
2022/04/30 02:47:30;;;;;;;0.22;0.22;;;;;;;;;;4947052;28;20051;-81
2022/04/30 02:49:56;;;;;;;0.10;0.10;;;;;;;;;;4947989;28;20043;-80
2022/04/30 02:52:22;;;;;;;1.27;1.20;;;;;;;;;;4947072;28;20047;-79
2022/04/30 02:54:48;;;;;;;0.20;0.20;;;;;;;;;;4943487;29;20362;-79
2022/04/30 02:57:14;;;;;;;0.27;0.27;;;;;;;;;;4941521;28;20046;-81
2022/04/30 02:59:58;;;;;;;3.60;0.50;;;;;;;;;;4944107;29;20290;-81
2022/04/30 03:02:24;;;;;;;0.28;0.17;;;;;;;;;;4944138;29;20495;-81
2022/04/30 03:04:51;;;;;;;3.50;1.98;;;;;;;;;;4948597;28;20376;-81
2022/04/30 03:07:22;;;;;;;0.35;0.28;;;;;;;;;;4940621;28;20047;-80
2022/04/30 03:09:49;;;;;;;0.88;0.52;;;;;;;;;;4943392;29;20460;-80
2022/04/30 03:12:15;;;;;;;0.20;0.20;;;;;;;;;;4943689;28;20117;-80
2022/04/30 03:14:42;;;;;;;0.52;0.52;;;;;;;;;;4942646;28;20118;-80
2022/04/30 03:22:38;;;;;;;0.32;0.32;;;;;;;;;;4942643;29;20495;-80
2022/04/30 03:25:04;;;;;;;0.30;0.30;;;;;;;;;;4939867;28;20499;-79
2022/04/30 03:27:32;;;;;;;0.50;0.50;;;;;;;;;;4945002;28;20345;-79
2022/04/30 03:29:58;;;;;;;0.45;0.45;;;;;;;;;;4943931;29;20038;-79
2022/04/30 03:32:24;;;;;;;1.08;0.75;;;;;;;;;;4944963;28;20114;-79
2022/04/30 03:34:51;;;;;;;0.30;0.30;;;;;;;;;;4945101;28;20023;-80
2022/04/30 03:37:18;;;;;;;0.70;0.65;;;;;;;;;;4942145;28;20035;-81
2022/04/30 03:39:44;;;;;;;0.77;0.55;;;;;;;;;;4946386;28;20491;-82
2022/04/30 03:42:10;;;;;;;0.50;0.50;;;;;;;;;;4942735;28;20965;-81
2022/04/30 03:44:36;;;;;;;0.40;0.40;;;;;;;;;;4942088;28;20039;-81
2022/04/30 03:47:02;;;;;;;0.22;0.22;;;;;;;;;;4948544;28;20299;-81
2022/04/30 03:49:28;;;;;;;0.68;0.68;;;;;;;;;;4943507;28;20042;-81
2022/04/30 03:51:54;;;;;;;0.60;0.60;;;;;;;;;;4945897;28;20490;-81
2022/04/30 03:54:21;;;;;;;0.40;0.38;;;;;;;;;;4941061;28;20503;-81
2022/04/30 03:56:47;;;;;;;0.85;0.85;;;;;;;;;;4943992;28;20745;-80
2022/04/30 03:59:13;;;;;;;0.30;0.30;;;;;;;;;;4945408;28;20046;-81
2022/04/30 04:01:39;;;;;;;0.57;0.57;;;;;;;;;;4946911;28;20486;-79
2022/04/30 04:04:05;;;;;;;0.55;0.22;;;;;;;;;;4945595;28;20027;-77
2022/04/30 04:06:32;;;;;;;0.50;0.50;;;;;;;;;;4937740;28;20051;-77
2022/04/30 04:08:59;;;;;;;0.50;0.50;;;;;;;;;;4943784;28;20066;-77
2022/04/30 04:11:26;;;;;;;0.47;0.45;;;;;;;;;;4944678;28;20035;-78
2022/04/30 04:19:23;;;;;;;0.20;0.20;;;;;;;;;;4946574;28;20053;-79
2022/04/30 04:21:50;;;;;;;0.52;0.52;;;;;;;;;;4944706;28;20031;-79
2022/04/30 04:27:01;;;;;;;0.25;0.25;;;;;;;;;;4945765;28;20046;-80
2022/04/30 04:29:27;;;;;;;0.20;0.20;;;;;;;;;;4944543;28;20042;-82
2022/04/30 04:31:53;;;;;;;0.17;0.17;;;;;;;;;;4939121;29;20032;-81
2022/04/30 04:34:19;;;;;;;0.20;0.20;;;;;;;;;;4946049;28;20414;-78
2022/04/30 04:36:45;;;;;;;0.10;0.10;;;;;;;;;;4942044;28;20050;-79
2022/04/30 04:39:12;;;;;;;0.20;0.20;;;;;;;;;;4947603;28;20034;-79
2022/04/30 04:41:39;;;;;;;0.32;0.32;;;;;;;;;;4944907;28;20035;-79
2022/04/30 04:44:05;;;;;;;0.32;0.32;;;;;;;;;;4947158;28;20050;-82
2022/04/30 04:46:32;;;;;;;0.57;0.57;;;;;;;;;;4944429;28;20529;-81
2022/04/30 04:48:58;;;;;;;0.32;0.32;;;;;;;;;;4948977;28;20071;-82
2022/04/30 04:51:24;;;;;;;0.20;0.20;;;;;;;;;;4944995;28;20046;-80
2022/04/30 04:53:50;;;;;;;5.13;1.23;;;;;;;;;;4942812;28;20053;-80
2022/04/30 04:56:16;;;;;;;0.43;0.43;;;;;;;;;;4947909;28;20507;-80
2022/04/30 04:58:42;;;;;;;0.28;0.28;;;;;;;;;;4943643;29;20031;-79
2022/04/30 05:01:08;;;;;;;0.90;0.90;;;;;;;;;;4946162;28;20039;-79
2022/04/30 05:03:34;;;;;;;2.63;1.45;;;;;;;;;;4943588;28;20027;-77
2022/04/30 05:06:00;;;;;;;0.23;0.23;;;;;;;;;;4943342;29;20514;-82
2022/04/30 05:08:27;;;;;;;0.80;0.70;;;;;;;;;;4943650;28;20829;-86
2022/04/30 05:10:53;;;;;;;0.43;0.43;;;;;;;;;;4946032;28;20039;-84
2022/04/30 05:13:19;;;;;;;0.10;0.10;;;;;;;;;;4948828;28;20042;-84
2022/04/30 05:15:45;;;;;;;1.55;0.38;;;;;;;;;;4948162;28;20031;-85
2022/04/30 05:18:11;;;;;;;6.37;1.13;;;;;;;;;;4943992;29;20067;-82
2022/04/30 05:20:38;;;;;;;0.60;0.57;;;;;;;;;;4945297;28;20185;-86
2022/04/30 05:23:04;;;;;;;0.63;0.63;;;;;;;;;;4942916;29;20290;-88
2022/04/30 05:25:30;;;;;;;0.77;0.77;;;;;;;;;;4939000;29;20070;-86
2022/04/30 05:27:56;;;;;;;4.18;1.00;;;;;;;;;;4941030;28;20031;-85
2022/04/30 05:30:23;;;;;;;0.25;0.25;;;;;;;;;;4948252;29;20039;-79
2022/04/30 05:32:49;;;;;;;1.85;0.57;;;;;;;;;;4942352;28;21764;-79
2022/04/30 05:35:15;;;;;;;0.03;0.03;;;;;;;;;;4934297;29;20042;-78
2022/04/30 05:37:41;;;;;;;0.30;0.30;;;;;;;;;;4938715;28;20030;-79
2022/04/30 05:40:07;;;;;;;0.45;0.45;;;;;;;;;;4946718;28;20524;-79
2022/04/30 05:42:33;;;;;;;0.10;0.10;;;;;;;;;;4932725;28;20114;-80
2022/04/30 05:45:01;;;;;;;0.22;0.22;;;;;;;;;;4931740;28;20033;-79
2022/04/30 05:47:27;;;;;;;0.25;0.25;;;;;;;;;;4934009;28;21504;-78
2022/04/30 05:49:53;;;;;;;9.07;0.97;;;;;;;;;;4937421;28;20495;-80
2022/04/30 05:52:19;;;;;;;3.00;2.00;;;;;;;;;;4930864;28;20053;-80
2022/04/30 05:54:46;;;;;;;0.17;0.17;;;;;;;;;;4929739;28;20279;-78
2022/04/30 05:57:12;;;;;;;0.00;0.00;;;;;;;;;;4942592;28;20046;-79
2022/04/30 05:59:38;;;;;;;1.02;0.57;;;;;;;;;;4945570;29;20031;-79
2022/04/30 06:02:04;;;;;;;0.20;0.20;;;;;;;;;;4944659;29;20031;-79
2022/04/30 06:04:30;;;;;;;0.22;0.22;;;;;;;;;;4942591;29;20113;-80
2022/04/30 06:06:58;;;;;;;0.75;0.52;;;;;;;;;;4940251;28;22151;-81
2022/04/30 06:09:24;;;;;;;0.22;0.22;;;;;;;;;;4936213;28;20031;-84
2022/04/30 06:11:51;;;;;;;0.17;0.15;;;;;;;;;;4943723;29;20046;-86
2022/04/30 06:14:17;;;;;;;0.47;0.47;;;;;;;;;;4942705;28;20038;-80
2022/04/30 06:16:43;;;;;;;3.30;1.55;;;;;;;;;;4937621;28;20163;-84
2022/04/30 06:19:09;;;;;;;0.30;0.30;;;;;;;;;;4951146;28;20062;-80
2022/04/30 06:21:36;;;;;;;0.63;0.52;;;;;;;;;;4940252;28;20090;-87
2022/04/30 06:24:02;;;;;;;0.50;0.30;;;;;;;;;;4941599;28;20035;-88
2022/04/30 06:26:28;;;;;;;0.47;0.47;;;;;;;;;;4936488;28;20527;-87
2022/04/30 06:28:55;;;;;;;1.63;0.85;;;;;;;;;;4943234;28;20038;-87
2022/04/30 06:31:22;;;;;;;0.88;0.55;;;;;;;;;;4939299;28;20058;-86
2022/04/30 06:33:49;;;;;;;0.20;0.10;;;;;;;;;;4941123;28;20407;-88
2022/04/30 06:36:15;;;;;;;0.32;0.32;;;;;;;;;;4940888;29;20090;-85
2022/04/30 06:38:41;;;;;;;0.32;0.32;;;;;;;;;;4945057;28;20043;-87
2022/04/30 06:41:07;;;;;;;0.30;0.30;;;;;;;;;;4934702;28;20147;-85
2022/04/30 06:43:33;;;;;;;0.20;0.20;;;;;;;;;;4936130;28;20282;-79
2022/04/30 06:45:59;;;;;;;0.40;0.40;;;;;;;;;;4942057;29;20035;-83
2022/04/30 06:48:25;;;;;;;0.17;0.17;;;;;;;;;;4941444;28;20042;-81
2022/04/30 06:50:51;;;;;;;0.17;0.17;;;;;;;;;;4935753;28;20047;-85
2022/04/30 06:58:53;;;;;;;0.10;0.10;;;;;;;;;;4939086;29;20098;-85
2022/04/30 07:01:43;;;;;;;0.40;0.40;;;;;;;;;;4934635;29;20093;-85
2022/04/30 07:04:10;;;;;;;0.45;0.30;;;;;;;;;;4927490;28;20039;-84
2022/04/30 07:06:37;;;;;;;0.30;0.30;;;;;;;;;;4934127;29;20035;-85
2022/04/30 07:09:04;;;;;;;0.38;0.30;;;;;;;;;;4929440;28;20495;-85
2022/04/30 07:11:31;;;;;;;1.63;0.70;;;;;;;;;;4928620;28;20031;-85
2022/04/30 07:13:58;;;;;;;0.35;0.35;;;;;;;;;;4929645;28;20782;-85
2022/04/30 07:16:24;;;;;;;0.20;0.20;;;;;;;;;;4945851;28;20043;-84
2022/04/30 07:18:50;;;;;;;0.35;0.35;;;;;;;;;;4942854;28;20024;-83
2022/04/30 07:21:16;;;;;;;0.47;0.30;;;;;;;;;;4941856;28;20046;-84
2022/04/30 07:23:43;;;;;;;0.95;0.70;;;;;;;;;;4942413;28;20032;-84
2022/04/30 07:26:09;;;;;;;0.40;0.40;;;;;;;;;;4943361;29;20082;-83
2022/04/30 07:28:35;;;;;;;0.10;0.10;;;;;;;;;;4941459;29;20035;-84
2022/04/30 07:31:05;;;;;;;1.25;0.30;;;;;;;;;;4944755;29;20114;-83
2022/04/30 07:33:31;;;;;;;3.42;1.25;;;;;;;;;;4941692;28;20027;-84
2022/04/30 07:35:58;;;;;;;0.20;0.20;;;;;;;;;;4931919;29;20038;-85
2022/04/30 07:38:24;;;;;;;0.38;0.38;;;;;;;;;;4940975;29;20046;-85
2022/04/30 07:40:50;;;;;;;0.15;0.15;;;;;;;;;;4940203;28;20031;-84
2022/04/30 07:43:16;;;;;;;0.47;0.28;;;;;;;;;;4940186;28;20042;-85
2022/04/30 07:45:42;;;;;;;0.15;0.10;;;;;;;;;;4938245;28;20030;-85
2022/04/30 07:48:08;;;;;;;0.10;0.10;;;;;;;;;;4938918;29;20041;-87
2022/04/30 07:50:37;;;;;;;0.28;0.20;;;;;;;;;;4943535;28;20043;-86
2022/04/30 07:53:04;;;;;;;4.25;0.43;;;;;;;;;;4948853;28;20035;-86
2022/04/30 07:55:30;;;;;;;0.20;0.10;;;;;;;;;;4941612;28;20039;-86
2022/04/30 07:57:57;;;;;;;0.30;0.30;;;;;;;;;;4943351;29;20038;-86
2022/04/30 08:00:24;;;;;;;0.75;0.40;;;;;;;;;;4942020;28;20038;-85
2022/04/30 08:02:50;;;;;;;0.08;0.08;;;;;;;;;;4942016;28;20461;-86
2022/04/30 08:05:16;;;;;;;0.70;0.50;;;;;;;;;;4935604;29;20035;-86
2022/04/30 08:07:42;;;;;;;;;;;;;;;;;;4934785;29;20042;-86
2022/04/30 08:10:08;;;;;;;0.00;0.00;;;;;;;;;;4934800;29;20257;-87
2022/04/30 08:12:35;;;;;;;0.25;0.20;;;;;;;;;;4943829;29;20038;-86
2022/04/30 08:15:00;;;;;;;;;;;;;;;;;;4936297;28;20061;-86
2022/04/30 08:17:29;;;;;;;0.25;0.25;;;;;;;;;;4936337;28;20382;-85
2022/04/30 08:19:55;;;;;;;0.32;0.32;;;;;;;;;;4940873;29;20058;-85
2022/04/30 08:22:21;;;;;;;0.38;0.38;;;;;;;;;;4934752;29;20038;-85
2022/04/30 08:24:47;;;;;;;;;;;;;;;;;;4937470;28;20027;-85
2022/04/30 08:27:13;;;;;;;0.35;0.35;;;;;;;;;;4933737;29;19929;-86
2022/04/30 08:29:39;;;;;;;0.75;0.52;;;;;;;;;;4933833;28;20035;-86
2022/04/30 08:32:05;;;;;;;;;;;;;;;;;;4929304;29;20035;-84
2022/04/30 08:34:33;;;;;;;0.28;0.28;;;;;;;;;;4930998;29;19945;-84
2022/04/30 08:36:59;;;;;;;1.98;0.68;;;;;;;;;;4931247;29;20032;-84
2022/04/30 08:39:25;;;;;;;0.08;0.08;;;;;;;;;;4933262;29;20507;-85
2022/04/30 08:41:51;;;;;;;;;;;;;;;;;;4933278;28;20689;-84
2022/04/30 08:44:18;;;;;;;0.13;0.13;;;;;;;;;;4932809;29;20554;-84
2022/04/30 08:46:44;;;;;;;0.10;0.10;;;;;;;;;;4930894;29;20054;-85
2022/04/30 08:49:11;;;;;;;1.30;0.30;;;;;;;;;;4934924;28;20035;-85
2022/04/30 08:51:38;;;;;;;0.08;0.03;;;;;;;;;;4936408;28;20088;-85
2022/04/30 08:54:04;;;;;;;0.20;0.20;;;;;;;;;;4935551;28;24229;-85
2022/04/30 08:56:30;;;;;;;;;;;;;;;;;;4928609;29;20093;-86
2022/04/30 08:59:02;;;;;;;0.52;0.40;;;;;;;;;;4935455;28;20450;-85
2022/04/30 09:01:28;;;;;;;0.10;0.10;;;;;;;;;;4936172;28;20046;-86
2022/04/30 09:03:55;;;;;;;0.20;0.10;;;;;;;;;;4936554;28;20027;-85
2022/04/30 09:06:21;;;;;;;0.10;0.10;;;;;;;;;;4941305;28;20098;-86
2022/04/30 09:08:51;;;;;;;0.45;0.17;;;;;;;;;;4941407;28;20037;-85
2022/04/30 09:11:17;;;;;;;0.57;0.28;;;;;;;;;;4919470;29;20037;-85
2022/04/30 09:13:48;;;;;;;0.03;0.03;;;;;;;;;;4939693;29;20385;-85
2022/04/30 09:16:18;;;;;;;0.15;0.15;;;;;;;;;;4941492;28;20109;-85
2022/04/30 09:18:44;;;;;;;0.20;0.20;;;;;;;;;;4939652;28;20035;-86
2022/04/30 09:21:10;;;;;;;;;;;;;;;;;;4938181;28;20038;-85
2022/04/30 09:23:36;;;;;;;0.15;0.15;;;;;;;;;;4938768;28;20723;-85
2022/04/30 09:26:05;;;;;;;0.13;0.13;;;;;;;;;;4940508;29;20090;-85
2022/04/30 09:28:38;;;;;;;5.57;0.90;;;;;;;;;;4945570;28;20651;-84
2022/04/30 09:31:08;;;;;;;0.25;0.13;;;;;;;;;;4937480;29;20027;-82
2022/04/30 09:33:57;;;;;;;0.13;0.13;;;;;;;;;;4938093;29;20054;-82
2022/04/30 09:39:16;;;;;;;4.57;0.70;;;;;;;;;;4932923;29;20053;-82
2022/04/30 09:41:42;;;;;;;0.00;0.00;;;;;;;;;;4939688;29;20646;-80
2022/04/30 09:44:09;;;;;;;0.10;0.10;;;;;;;;;;4936614;29;20035;-80
2022/04/30 09:46:36;;;;;;;0.10;0.10;;;;;;;;;;4935049;28;20507;-80
2022/04/30 09:54:36;;;;;;;0.47;0.15;;;;;;;;;;4930418;28;20534;-79
2022/04/30 09:57:04;;;;;;;0.70;0.15;;;;;;;;;;4933468;28;20047;-80
2022/04/30 09:59:30;;;;;;;8.77;0.30;;;;;;;;;;4942586;29;20050;-79
2022/04/30 10:01:58;;;;;;;0.13;0.13;;;;;;;;;;4933260;29;20027;-79
2022/04/30 10:04:24;;;;;;;0.77;0.57;;;;;;;;;;4937525;29;20137;-79
2022/04/30 10:06:50;;;;;;;;;;;;;;;;;;4942060;28;20042;-79
2022/04/30 10:09:17;;;;;;;0.38;0.38;;;;;;;;;;4938257;29;19915;-79
2022/04/30 10:12:03;;;;;;;1.17;0.40;;;;;;;;;;4931594;28;20794;-80
2022/04/30 10:14:38;;;;;;;0.03;0.03;;;;;;;;;;4933889;28;20126;-79
2022/04/30 10:17:16;;;;;;;0.33;0.33;;;;;;;;;;4940543;29;20045;-81
2022/04/30 10:19:43;;;;;;;0.30;0.30;;;;;;;;;;4942717;28;20518;-80
2022/04/30 10:22:13;;;;;;;0.10;0.10;;;;;;;;;;4940350;28;20106;-79
2022/04/30 10:24:43;;;;;;;0.10;0.10;;;;;;;;;;4941549;29;20419;-79
2022/04/30 10:27:09;;;;;;;0.00;0.00;;;;;;;;;;4940362;28;20044;-78
2022/04/30 10:29:35;;;;;;;0.25;0.17;;;;;;;;;;4940159;28;20038;-78
2022/04/30 10:32:01;;;;;;;0.25;0.20;;;;;;;;;;4929347;28;20512;-78
2022/04/30 10:34:31;;;;;;;0.10;0.10;;;;;;;;;;4930494;28;20537;-78
2022/04/30 10:37:00;;;;;;;1.48;0.60;;;;;;;;;;4935430;29;20149;-81
2022/04/30 10:39:26;;;;;;;0.40;0.38;;;;;;;;;;4938417;28;20077;-77
2022/04/30 10:41:53;;;;;;;0.47;0.47;;;;;;;;;;4937002;29;20130;-78
2022/04/30 10:44:29;;;;;;;0.10;0.10;;;;;;;;;;4937762;29;21157;-79
2022/04/30 10:46:55;;;;;;;1.00;0.10;;;;;;;;;;4938589;28;20071;-78
2022/04/30 10:49:21;;;;;;;1.20;0.70;;;;;;;;;;4935899;28;20023;-78
2022/04/30 10:51:47;;;;;;;0.55;0.25;;;;;;;;;;4932242;28;20408;-78
2022/04/30 10:54:18;;;;;;;0.20;0.20;;;;;;;;;;4930275;28;20932;-77
2022/04/30 10:56:44;;;;;;;0.32;0.32;;;;;;;;;;4934592;29;20530;-77
2022/04/30 10:59:10;;;;;;;;;;;;;;;;;;4926511;29;20552;-78
2022/04/30 11:01:36;;;;;;;;;;;;;;;;;;4928649;29;19914;-77
2022/04/30 11:04:03;;;;;;;0.30;0.30;;;;;;;;;;4946258;28;20447;-76
2022/04/30 11:06:29;;;;;;;;;;;;;;;;;;4934937;28;20500;-78
2022/04/30 11:09:03;;;;;;;0.10;0.10;;;;;;;;;;4928504;28;19989;-77
2022/04/30 11:11:30;;;;;;;1.80;0.20;;;;;;;;;;4932246;28;20047;-77
2022/04/30 11:13:58;;;;;;;0.60;0.50;;;;;;;;;;4937184;28;20027;-77
2022/04/30 11:16:31;;;;;;;0.25;0.25;;;;;;;;;;4932715;29;20055;-77
2022/04/30 11:19:03;;;;;;;0.10;0.10;;;;;;;;;;4930647;29;20027;-76
2022/04/30 11:21:30;;;;;;;0.13;0.10;;;;;;;;;;4934458;29;20035;-77
2022/04/30 11:23:56;;;;;;;0.45;0.40;;;;;;;;;;4936909;28;20142;-77
2022/04/30 11:26:22;;;;;;;0.10;0.10;;;;;;;;;;4938741;28;20655;-78
2022/04/30 11:28:48;;;;;;;0.20;0.20;;;;;;;;;;4939434;29;20106;-78
2022/04/30 11:31:14;;;;;;;;;;;;;;;;;;4938904;29;20035;-78
2022/04/30 11:33:40;;;;;;;;;;;;;;;;;;4935095;29;19914;-78
2022/04/30 11:36:06;;;;;;;0.00;0.00;;;;;;;;;;4938325;29;19969;-78
2022/04/30 11:38:32;;;;;;;0.52;0.52;;;;;;;;;;4940268;29;20031;-78
2022/04/30 11:41:05;;;;;;;1.13;0.95;;;;;;;;;;4936036;28;20031;-78
2022/04/30 11:43:31;;;;;;;0.90;0.77;;;;;;;;;;4934942;29;20034;-77
2022/04/30 11:46:03;;;;;;;0.08;0.08;;;;;;;;;;4936747;29;20418;-78
2022/04/30 11:48:38;;;;;;;0.52;0.28;;;;;;;;;;4933046;28;20058;-76
2022/04/30 11:51:04;;;;;;;1.52;0.52;;;;;;;;;;4931409;28;20051;-78
2022/04/30 11:53:30;;;;;;;;;;;;;;;;;;4935134;29;20089;-78
2022/04/30 11:55:56;;;;;;;;;;;;;;;;;;4937199;29;20024;-78
2022/04/30 11:58:22;;;;;;;0.20;0.10;;;;;;;;;;4940309;29;19914;-78
2022/04/30 12:00:52;;;;;;;1.20;0.35;;;;;;;;;;4939399;29;20120;-78
2022/04/30 12:03:25;;;;;;;4.38;1.35;;;;;;;;;;4939025;29;20035;-78
2022/04/30 12:05:52;;;;;;;0.40;0.40;;;;;;;;;;4935450;29;20031;-77
2022/04/30 12:08:19;;;;;;;0.20;0.20;;;;;;;;;;4940036;29;20039;-78
2022/04/30 12:10:54;;;;;;;0.45;0.22;;;;;;;;;;4938438;28;20027;-77
2022/04/30 12:13:24;;;;;;;0.10;0.10;;;;;;;;;;4940326;29;20031;-77
2022/04/30 12:15:50;;;;;;;0.13;0.13;;;;;;;;;;4939884;29;20712;-78
2022/04/30 12:26:31;;;;;;;9.10;0.70;;;;;;;;;;4932887;28;19969;-78
2022/04/30 12:28:57;;;;;;;3.05;1.05;;;;;;;;;;4937825;28;20113;-78
2022/04/30 12:31:23;;;;;;;0.52;0.20;;;;;;;;;;4938110;28;20098;-78
2022/04/30 12:33:50;;;;;;;0.00;0.00;;;;;;;;;;4937282;28;20621;-78
2022/04/30 12:36:17;;;;;;;0.03;0.03;;;;;;;;;;4935861;28;20917;-78
2022/04/30 12:38:55;;;;;;;0.00;0.00;;;;;;;;;;4935050;28;20038;-77
2022/04/30 12:41:23;;;;;;;2.65;1.10;;;;;;;;;;4942132;29;20046;-78
2022/04/30 12:43:49;;;;;;;1.40;0.22;;;;;;;;;;4939139;28;20519;-78
2022/04/30 12:46:19;;;;;;;0.25;0.20;;;;;;;;;;4940417;29;20039;-78
2022/04/30 12:48:45;;;;;;;0.10;0.10;;;;;;;;;;4942807;28;20043;-78
2022/04/30 12:51:11;;;;;;;0.10;0.10;;;;;;;;;;4941057;28;20066;-78
2022/04/30 12:53:37;;;;;;;0.80;0.52;;;;;;;;;;4943520;28;20039;-78
2022/04/30 12:56:03;;;;;;;0.22;0.20;;;;;;;;;;4938171;28;20057;-78
2022/04/30 12:58:29;;;;;;;0.00;0.00;;;;;;;;;;4931060;28;20036;-78
2022/04/30 13:00:55;;;;;;;0.70;0.50;;;;;;;;;;4928830;28;20057;-77
2022/04/30 13:03:21;;;;;;;0.35;0.20;;;;;;;;;;4929146;28;20075;-78
2022/04/30 13:05:47;;;;;;;0.10;0.10;;;;;;;;;;4932079;28;20498;-77
2022/04/30 13:08:13;;;;;;;0.13;0.13;;;;;;;;;;4926551;28;20046;-78
2022/04/30 13:13:34;;;;;;;2.38;0.95;;;;;;;;;;4931277;28;20916;-77
2022/04/30 13:16:04;;;;;;;0.55;0.55;;;;;;;;;;4925812;28;20034;-77
2022/04/30 13:18:31;;;;;;;0.15;0.15;;;;;;;;;;4930833;28;20043;-77
2022/04/30 13:20:57;;;;;;;0.47;0.47;;;;;;;;;;4928502;28;20031;-77
2022/04/30 13:23:23;;;;;;;0.10;0.10;;;;;;;;;;4928206;28;20054;-80
2022/04/30 13:25:49;;;;;;;0.20;0.20;;;;;;;;;;4933090;28;20591;-77
2022/04/30 13:28:15;;;;;;;0.00;0.00;;;;;;;;;;4934619;28;20035;-77
2022/04/30 13:30:41;;;;;;;0.03;0.03;;;;;;;;;;4928710;28;20051;-77
2022/04/30 13:33:07;;;;;;;0.00;0.00;;;;;;;;;;4926461;28;20109;-77
2022/04/30 13:35:33;;;;;;;0.10;0.10;;;;;;;;;;4935004;28;20051;-77
2022/04/30 13:37:59;;;;;;;3.20;0.45;;;;;;;;;;4935667;28;20031;-78
2022/04/30 13:40:25;;;;;;;0.15;0.15;;;;;;;;;;4925864;29;20024;-78
2022/04/30 13:42:51;;;;;;;0.50;0.20;;;;;;;;;;4929832;29;20030;-78
2022/04/30 13:45:18;;;;;;;0.10;0.10;;;;;;;;;;4927966;29;20039;-77
2022/04/30 13:47:46;;;;;;;0.00;0.00;;;;;;;;;;4924448;29;20043;-75
2022/04/30 13:50:12;;;;;;;0.10;0.10;;;;;;;;;;4923417;28;20054;-75
2022/04/30 13:52:38;;;;;;;1.42;0.73;;;;;;;;;;4939260;29;20050;-75
2022/04/30 13:55:07;;;;;;;6.90;0.30;;;;;;;;;;4937585;29;20174;-75
2022/04/30 13:57:33;;;;;;;0.28;0.28;;;;;;;;;;4925496;28;20031;-76
2022/04/30 13:59:59;;;;;;;0.10;0.10;;;;;;;;;;4927588;29;20054;-76
2022/04/30 14:02:25;;;;;;;0.15;0.13;;;;;;;;;;4938720;28;20031;-76
2022/04/30 14:04:54;;;;;;;0.80;0.47;;;;;;;;;;4931238;29;20044;-75
2022/04/30 14:07:21;;;;;;;0.17;0.17;;;;;;;;;;4923180;29;20067;-75
2022/04/30 14:09:47;;;;;;;0.40;0.40;;;;;;;;;;4924733;29;20035;-75
2022/04/30 14:12:13;;;;;;;0.32;0.32;;;;;;;;;;4930379;29;20163;-75
2022/04/30 14:14:57;;;;;;;0.10;0.10;;;;;;;;;;4924569;28;20035;-75
2022/04/30 14:20:10;;;;;;;1.05;0.60;;;;;;;;;;4924798;28;20312;-76
2022/04/30 14:22:36;;;;;;;0.00;0.00;;;;;;;;;;4928261;28;20038;-74
2022/04/30 14:25:02;;;;;;;0.75;0.68;;;;;;;;;;4932248;29;20036;-76
2022/04/30 14:27:28;;;;;;;0.20;0.20;;;;;;;;;;4927678;28;21107;-75
2022/04/30 14:29:55;;;;;;;0.43;0.43;;;;;;;;;;4926968;29;22017;-75
2022/04/30 14:32:21;;;;;;;0.63;0.38;;;;;;;;;;4938399;29;20070;-76
2022/04/30 14:34:47;;;;;;;0.55;0.10;;;;;;;;;;4939990;28;20102;-77
2022/04/30 14:37:13;;;;;;;0.10;0.10;;;;;;;;;;4935463;29;20042;-76
2022/04/30 14:39:40;;;;;;;0.25;0.10;;;;;;;;;;4931860;29;20692;-74
2022/04/30 14:42:07;;;;;;;;;;;;;;;;;;4931766;29;20039;-76
2022/04/30 14:44:33;;;;;;;0.35;0.35;;;;;;;;;;4929859;29;19914;-76
2022/04/30 14:46:59;;;;;;;0.45;0.20;;;;;;;;;;4930163;29;20062;-76
2022/04/30 14:49:25;;;;;;;1.65;1.08;;;;;;;;;;4934051;28;20024;-76
2022/04/30 14:51:51;;;;;;;0.40;0.40;;;;;;;;;;4935374;28;20075;-76
2022/04/30 14:54:17;;;;;;;0.30;0.30;;;;;;;;;;4933115;29;20098;-75
2022/04/30 14:56:43;;;;;;;0.35;0.35;;;;;;;;;;4933804;29;20806;-75
2022/04/30 14:59:10;;;;;;;0.00;0.00;;;;;;;;;;4925695;28;20027;-76
2022/04/30 15:01:36;;;;;;;0.00;0.00;;;;;;;;;;4933686;28;20050;-75
2022/04/30 15:04:02;;;;;;;0.00;0.00;;;;;;;;;;4936406;29;20507;-76
2022/04/30 15:06:29;;;;;;;0.30;0.10;;;;;;;;;;4935688;28;20070;-75
2022/04/30 15:08:58;;;;;;;0.20;0.15;;;;;;;;;;4941042;28;20023;-75
2022/04/30 15:11:27;;;;;;;0.65;0.65;;;;;;;;;;4941991;29;20617;-75
2022/04/30 15:13:54;;;;;;;0.30;0.30;;;;;;;;;;4941474;28;20078;-76
2022/04/30 15:16:20;;;;;;;;;;;;;;;;;;4939704;29;20108;-76
2022/04/30 15:18:46;;;;;;;0.20;0.20;;;;;;;;;;4938352;28;20695;-75
2022/04/30 15:21:12;;;;;;;0.80;0.63;;;;;;;;;;4939709;28;20031;-75
2022/04/30 15:23:38;;;;;;;0.55;0.45;;;;;;;;;;4937410;28;20039;-75
2022/04/30 15:26:04;;;;;;;17.95;1.05;;;;;;;;;;4938646;29;20035;-75
2022/04/30 15:28:30;;;;;;;0.05;0.00;;;;;;;;;;4940648;29;20502;-75
2022/04/30 15:30:57;;;;;;;0.20;0.20;;;;;;;;;;4937093;28;20031;-75
2022/04/30 15:33:23;;;;;;;0.32;0.32;;;;;;;;;;4936486;28;20039;-75